createdAt,value
2022-07-25T00:02:19.900Z,80.76
2022-07-25T00:04:49.533Z,81.31
2022-07-25T00:07:17.393Z,81.78
2022-07-25T00:09:45.285Z,81.22
2022-07-25T00:12:13.962Z,82.32
2022-07-25T00:14:41.844Z,82.25
2022-07-25T00:17:11.113Z,83.67
2022-07-25T00:19:39.024Z,84.31
2022-07-25T00:22:06.974Z,84.27
2022-07-25T00:24:35.184Z,84.38
2022-07-25T00:27:03.825Z,86.01
2022-07-25T00:29:31.763Z,84.25
2022-07-25T00:31:59.870Z,83.28
2022-07-25T00:34:28.998Z,83.34
2022-07-25T00:36:56.843Z,84.40
2022-07-25T00:39:24.676Z,83.69
2022-07-25T00:41:52.505Z,83.47
2022-07-25T00:44:25.287Z,82.38
2022-07-25T00:46:53.482Z,82.51
2022-07-25T00:49:21.361Z,83.04
2022-07-25T00:51:51.456Z,83.47
2022-07-25T00:54:19.730Z,82.79
2022-07-25T00:56:47.670Z,82.62
2022-07-25T00:59:16.659Z,82.73
2022-07-25T01:01:45.679Z,83.88
2022-07-25T01:04:13.626Z,83.66
2022-07-25T01:06:41.636Z,85.38
2022-07-25T01:09:10.899Z,85.67
2022-07-25T01:11:39.353Z,85.09
2022-07-25T01:14:08.032Z,84.05
2022-07-25T01:16:36.428Z,83.47
2022-07-25T01:19:04.594Z,84.29
2022-07-25T01:21:33.832Z,84.12
2022-07-25T01:24:01.796Z,83.43
2022-07-25T01:26:30.550Z,82.76
2022-07-25T01:28:58.547Z,82.74
2022-07-25T01:31:26.685Z,82.88
2022-07-25T01:33:54.583Z,82.68
2022-07-25T01:36:22.484Z,83.34
2022-07-25T01:38:51.703Z,84.27
2022-07-25T01:41:22.671Z,84.14
2022-07-25T01:43:50.899Z,84.00
2022-07-25T01:46:18.879Z,84.10
2022-07-25T01:48:46.873Z,84.20
2022-07-25T01:51:14.855Z,85.93
2022-07-25T01:53:48.633Z,86.69
2022-07-25T01:56:18.127Z,86.09
2022-07-25T01:58:49.769Z,86.71
2022-07-25T02:01:17.681Z,87.83
2022-07-25T02:03:49.403Z,88.24
2022-07-25T02:06:18.889Z,87.65
2022-07-25T02:08:46.899Z,87.58
2022-07-25T02:11:14.857Z,87.79
2022-07-25T02:13:44.668Z,87.28
2022-07-25T02:16:12.869Z,86.78
2022-07-25T02:18:40.957Z,84.65
2022-07-25T02:21:14.507Z,83.25
2022-07-25T02:23:43.282Z,84.28
2022-07-25T02:26:11.737Z,84.95
2022-07-25T02:28:39.885Z,84.42
2022-07-25T02:31:09.727Z,84.51
2022-07-25T02:33:38.022Z,87.73
2022-07-25T02:36:06.107Z,87.01
2022-07-25T02:38:33.972Z,85.85
2022-07-25T02:41:02.190Z,86.80
2022-07-25T02:43:29.990Z,87.90
2022-07-25T02:45:58.057Z,88.93
2022-07-25T02:48:27.374Z,89.15
2022-07-25T02:50:55.191Z,87.91
2022-07-25T02:53:46.800Z,88.11
2022-07-25T02:56:10.831Z,89.00
2022-07-25T02:58:39.343Z,89.78
2022-07-25T03:01:07.884Z,89.45
2022-07-25T03:03:37.258Z,89.45
2022-07-25T03:06:05.483Z,88.67
2022-07-25T03:08:33.418Z,88.84
2022-07-25T03:11:01.245Z,88.35
2022-07-25T03:13:28.969Z,88.14
2022-07-25T03:15:57.042Z,88.04
2022-07-25T03:18:24.797Z,88.62
2022-07-25T03:20:53.995Z,89.40
2022-07-25T03:23:21.767Z,89.60
2022-07-25T03:25:49.669Z,89.85
2022-07-25T03:28:17.467Z,90.98
2022-07-25T03:30:45.384Z,90.55
2022-07-25T03:33:13.160Z,90.31
2022-07-25T03:35:41.046Z,90.39
2022-07-25T03:38:10.313Z,90.66
2022-07-25T03:40:38.314Z,90.83
2022-07-25T03:43:06.415Z,90.86
2022-07-25T03:45:34.277Z,90.94
2022-07-25T03:48:02.098Z,91.39
2022-07-25T03:50:29.953Z,91.22
2022-07-25T03:52:57.779Z,90.56
2022-07-25T03:55:27.891Z,90.85
2022-07-25T03:57:55.696Z,90.67
2022-07-25T04:00:23.433Z,91.37
2022-07-25T04:02:51.353Z,91.29
2022-07-25T04:05:19.194Z,90.90
2022-07-25T04:07:46.907Z,90.82
2022-07-25T04:10:14.746Z,90.52
2022-07-25T04:12:45.601Z,91.26
2022-07-25T04:15:13.726Z,91.09
2022-07-25T04:17:41.495Z,91.22
2022-07-25T04:20:10.172Z,91.48
2022-07-25T04:22:40.092Z,91.74
2022-07-25T04:25:10.472Z,92.03
2022-07-25T04:27:38.415Z,91.54
2022-07-25T04:30:08.807Z,90.95
2022-07-25T04:32:36.564Z,91.25
2022-07-25T04:35:04.662Z,90.97
2022-07-25T04:37:32.766Z,91.38
2022-07-25T04:40:00.508Z,91.78
2022-07-25T04:42:28.358Z,91.94
2022-07-25T04:44:56.208Z,91.54
2022-07-25T04:47:25.327Z,92.36
2022-07-25T04:49:53.490Z,92.97
2022-07-25T04:52:21.937Z,92.60
2022-07-25T04:54:49.917Z,92.93
2022-07-25T04:57:17.854Z,93.24
2022-07-25T04:59:45.727Z,92.91
2022-07-25T05:02:13.567Z,93.49
2022-07-25T05:04:45.292Z,93.65
2022-07-25T05:07:13.466Z,93.13
2022-07-25T05:09:41.497Z,93.09
2022-07-25T05:12:10.106Z,92.89
2022-07-25T05:14:38.580Z,92.84
2022-07-25T05:17:06.565Z,92.24
2022-07-25T05:19:35.070Z,93.07
2022-07-25T05:22:04.624Z,92.34
2022-07-25T05:24:34.364Z,91.51
2022-07-25T05:27:02.291Z,91.49
2022-07-25T05:29:30.085Z,90.46
2022-07-25T05:31:57.960Z,91.21
2022-07-25T05:34:25.872Z,91.47
2022-07-25T05:36:53.658Z,91.77
2022-07-25T05:39:23.022Z,92.01
2022-07-25T05:41:50.822Z,92.10
2022-07-25T05:44:18.815Z,91.36
2022-07-25T05:46:46.831Z,91.33
2022-07-25T05:49:16.051Z,90.42
2022-07-25T05:51:44.039Z,90.14
2022-07-25T05:54:11.819Z,90.12
2022-07-25T05:56:41.045Z,88.05
2022-07-25T05:59:09.181Z,89.57
2022-07-25T06:01:37.287Z,88.77
2022-07-25T06:04:05.711Z,86.66
2022-07-25T06:06:33.707Z,85.76
2022-07-25T06:09:01.428Z,85.99
2022-07-25T06:14:00.284Z,85.25
2022-07-25T06:16:28.448Z,82.15
2022-07-25T06:18:56.368Z,79.26
2022-07-25T06:21:24.233Z,75.93
2022-07-25T06:23:52.019Z,73.14
2022-07-25T06:26:19.961Z,73.75
2022-07-25T06:28:47.817Z,73.62
2022-07-25T06:31:17.215Z,72.46
2022-07-25T06:33:44.998Z,70.76
2022-07-25T06:36:12.856Z,69.92
2022-07-25T06:38:40.644Z,67.83
2022-07-25T06:41:08.442Z,67.35
2022-07-25T06:43:36.328Z,66.02
2022-07-25T06:46:04.093Z,64.97
2022-07-25T06:48:33.264Z,64.70
2022-07-25T06:51:01.073Z,63.57
2022-07-25T06:53:29.303Z,63.03
2022-07-25T06:55:57.132Z,62.73
2022-07-25T06:58:25.934Z,62.54
2022-07-25T07:00:53.946Z,61.80
2022-07-25T07:03:21.974Z,61.04
2022-07-25T07:05:51.401Z,60.77
2022-07-25T07:08:19.274Z,60.23
2022-07-25T07:10:47.284Z,59.17
2022-07-25T07:13:22.249Z,59.08
2022-07-25T07:15:52.453Z,58.84
2022-07-25T07:18:21.392Z,58.16
2022-07-25T07:20:49.294Z,57.67
2022-07-25T07:23:19.199Z,56.47
2022-07-25T07:25:47.708Z,56.45
2022-07-25T07:28:16.499Z,55.52
2022-07-25T07:31:15.811Z,55.75
2022-07-25T07:33:33.415Z,55.28
2022-07-25T07:36:01.307Z,55.16
2022-07-25T07:38:30.603Z,55.34
2022-07-25T07:40:58.476Z,54.59
2022-07-25T07:43:29.952Z,54.46
2022-07-25T07:46:00.760Z,54.49
2022-07-25T07:48:29.432Z,53.65
2022-07-25T07:50:57.647Z,53.63
2022-07-25T07:53:45.711Z,53.15
2022-07-25T07:56:14.994Z,53.15
2022-07-25T07:58:42.957Z,53.05
2022-07-25T08:01:10.887Z,51.55
2022-07-25T08:03:38.867Z,51.68
2022-07-25T08:06:07.510Z,52.19
2022-07-25T08:08:35.569Z,51.92
2022-07-25T08:11:03.427Z,51.25
2022-07-25T08:13:34.086Z,51.57
2022-07-25T08:16:03.574Z,50.78
2022-07-25T08:18:32.861Z,50.31
2022-07-25T08:21:02.947Z,50.19
2022-07-25T08:23:31.842Z,49.66
2022-07-25T08:26:00.725Z,50.42
2022-07-25T08:28:28.888Z,49.42
2022-07-25T08:30:59.003Z,48.88
2022-07-25T08:33:26.949Z,48.97
2022-07-25T08:35:56.424Z,48.46
2022-07-25T08:38:26.172Z,47.11
2022-07-25T08:40:54.380Z,46.71
2022-07-25T08:43:22.450Z,46.93
2022-07-25T08:45:51.851Z,47.17
2022-07-25T08:48:23.422Z,46.18
2022-07-25T08:50:52.254Z,46.01
2022-07-25T08:53:36.902Z,46.22
2022-07-25T08:56:12.647Z,46.59
2022-07-25T08:58:44.604Z,46.00
2022-07-25T09:01:13.611Z,45.79
2022-07-25T09:03:43.447Z,45.27
2022-07-25T09:06:14.918Z,45.42
2022-07-25T09:08:52.717Z,44.83
2022-07-25T09:11:31.266Z,45.29
2022-07-25T09:14:01.470Z,45.32
2022-07-25T09:16:33.925Z,45.14
2022-07-25T09:19:12.050Z,44.75
2022-07-25T09:21:40.918Z,44.46
2022-07-25T09:24:14.097Z,44.74
2022-07-25T09:26:49.717Z,44.99
2022-07-25T09:29:23.606Z,44.76
2022-07-25T09:31:52.429Z,44.89
2022-07-25T09:34:37.813Z,44.17
2022-07-25T09:37:07.807Z,44.09
2022-07-25T09:39:46.091Z,44.22
2022-07-25T09:42:22.471Z,43.64
2022-07-25T09:45:06.522Z,42.56
2022-07-25T09:47:36.653Z,42.64
2022-07-25T09:50:07.475Z,42.39
2022-07-25T09:52:36.752Z,41.51
2022-07-25T09:55:06.384Z,42.10
2022-07-25T09:57:34.205Z,42.58
2022-07-25T10:00:02.662Z,42.15
2022-07-25T10:02:48.622Z,41.45
2022-07-25T10:05:26.783Z,41.56
2022-07-25T10:07:56.284Z,41.23
2022-07-25T10:10:30.521Z,40.77
2022-07-25T10:13:09.508Z,40.92
2022-07-25T10:15:47.393Z,40.30
2022-07-25T10:18:16.825Z,40.16
2022-07-25T10:20:47.186Z,39.76
2022-07-25T10:23:21.944Z,39.91
2022-07-25T10:26:01.303Z,39.23
2022-07-25T10:28:38.841Z,39.13
2022-07-25T10:31:17.220Z,38.79
2022-07-25T10:33:49.583Z,37.93
2022-07-25T10:36:19.498Z,38.13
2022-07-25T10:38:48.022Z,38.05
2022-07-25T10:41:17.489Z,37.64
2022-07-25T10:43:48.670Z,37.78
2022-07-25T10:46:20.488Z,37.86
2022-07-25T10:48:59.114Z,37.73
2022-07-25T10:51:30.078Z,38.21
2022-07-25T10:53:58.719Z,37.75
2022-07-25T10:56:28.714Z,37.70
2022-07-25T10:58:58.369Z,36.77
2022-07-25T11:01:27.200Z,37.07
2022-07-25T11:03:56.471Z,37.39
2022-07-25T11:06:34.564Z,37.17
2022-07-25T11:09:03.678Z,37.38
2022-07-25T11:11:40.459Z,37.70
2022-07-25T11:14:16.582Z,37.04
2022-07-25T11:16:46.271Z,35.47
2022-07-25T11:19:22.469Z,36.57
2022-07-25T11:21:53.560Z,36.45
2022-07-25T11:24:21.782Z,36.47
2022-07-25T11:26:51.615Z,36.78
2022-07-25T11:29:20.763Z,36.42
2022-07-25T11:31:56.564Z,36.40
2022-07-25T11:34:28.356Z,36.49
2022-07-25T11:36:59.747Z,37.38
2022-07-25T11:39:28.724Z,37.95
2022-07-25T11:42:01.609Z,37.34
2022-07-25T11:44:33.974Z,37.70
2022-07-25T11:47:02.195Z,35.67
2022-07-25T11:49:30.223Z,35.74
2022-07-25T11:51:59.397Z,34.95
2022-07-25T11:54:27.235Z,35.38
2022-07-25T11:56:55.108Z,35.47
2022-07-25T11:59:22.919Z,35.61
2022-07-25T12:01:51.390Z,35.99
2022-07-25T12:04:20.909Z,35.76
2022-07-25T12:06:50.251Z,36.16
2022-07-25T12:09:21.704Z,34.78
2022-07-25T12:11:50.422Z,34.41
2022-07-25T12:14:18.326Z,33.95
2022-07-25T12:16:46.199Z,35.32
2022-07-25T12:19:22.599Z,34.81
2022-07-25T12:21:50.883Z,34.56
2022-07-25T12:24:20.777Z,34.64
2022-07-25T12:26:49.259Z,34.28
2022-07-25T12:29:17.419Z,34.62
2022-07-25T12:31:45.816Z,35.01
2022-07-25T12:34:14.428Z,35.04
2022-07-25T12:36:45.200Z,34.77
2022-07-25T12:39:13.656Z,35.77
2022-07-25T12:41:45.633Z,36.10
2022-07-25T12:44:15.297Z,36.40
2022-07-25T12:46:49.106Z,37.05
2022-07-25T12:49:18.080Z,37.62
2022-07-25T12:51:46.560Z,37.34
2022-07-25T12:54:21.710Z,37.93
2022-07-25T12:56:52.517Z,36.18
2022-07-25T12:59:21.263Z,36.79
2022-07-25T13:01:49.823Z,36.28
2022-07-25T13:04:18.515Z,36.61
2022-07-25T13:06:46.975Z,37.09
2022-07-25T13:09:15.493Z,36.75
2022-07-25T13:11:46.569Z,36.93
2022-07-25T13:14:21.564Z,37.45
2022-07-25T13:16:50.036Z,37.90
2022-07-25T13:19:21.103Z,37.29
2022-07-25T13:21:49.944Z,37.87
2022-07-25T13:24:21.827Z,38.35
2022-07-25T13:26:50.272Z,38.14
2022-07-25T13:29:20.234Z,38.19
2022-07-25T13:31:50.940Z,38.26
2022-07-25T13:34:20.322Z,38.79
2022-07-25T13:36:49.349Z,38.84
2022-07-25T13:39:18.061Z,39.20
2022-07-25T13:41:48.698Z,39.03
2022-07-25T13:44:17.529Z,39.50
2022-07-25T13:46:49.994Z,39.43
2022-07-25T13:49:18.815Z,39.61
2022-07-25T13:51:47.645Z,39.56
2022-07-25T13:54:17.117Z,39.05
2022-07-25T13:56:45.704Z,38.83
2022-07-25T13:59:20.501Z,39.14
2022-07-25T14:01:50.834Z,39.53
2022-07-25T14:04:18.764Z,39.66
2022-07-25T14:06:51.810Z,39.59
2022-07-25T14:09:21.041Z,38.62
2022-07-25T14:11:49.543Z,38.07
2022-07-25T14:14:18.051Z,37.28
2022-07-25T14:16:46.078Z,36.88
2022-07-25T14:19:16.014Z,36.84
2022-07-25T14:21:43.954Z,37.60
2022-07-25T14:24:11.794Z,37.86
2022-07-25T14:26:39.642Z,37.46
2022-07-25T14:29:11.108Z,37.68
2022-07-25T14:31:40.877Z,37.31
2022-07-25T14:34:08.651Z,37.05
2022-07-25T14:36:37.833Z,36.60
2022-07-25T14:39:06.696Z,36.97
2022-07-25T14:41:35.235Z,36.48
2022-07-25T14:44:03.184Z,36.75
2022-07-25T14:46:31.114Z,36.70
2022-07-25T14:48:59.306Z,37.31
2022-07-25T14:51:28.550Z,37.19
2022-07-25T14:53:57.737Z,37.61
2022-07-25T14:56:25.677Z,37.12
2022-07-25T14:58:53.453Z,37.27
2022-07-25T15:01:24.344Z,38.30
2022-07-25T15:03:52.582Z,38.40
2022-07-25T15:06:21.814Z,39.76
2022-07-25T15:08:52.005Z,39.81
2022-07-25T15:11:21.881Z,40.14
2022-07-25T15:13:50.277Z,40.23
2022-07-25T15:16:19.092Z,40.52
2022-07-25T15:19:14.665Z,40.85
2022-07-25T15:21:35.316Z,41.52
2022-07-25T15:24:03.253Z,40.98
2022-07-25T15:26:32.687Z,40.54
2022-07-25T15:29:00.513Z,40.90
2022-07-25T15:31:28.956Z,41.40
2022-07-25T15:33:56.975Z,42.09
2022-07-25T15:36:29.351Z,41.95
2022-07-25T15:38:58.026Z,42.60
2022-07-25T15:41:26.659Z,42.35
2022-07-25T15:43:55.942Z,43.11
2022-07-25T15:46:23.945Z,42.94
2022-07-25T15:48:51.811Z,43.21
2022-07-25T15:51:20.217Z,43.35
2022-07-25T15:53:48.057Z,43.17
2022-07-25T15:56:16.339Z,43.90
2022-07-25T15:58:44.304Z,43.30
2022-07-25T16:01:13.463Z,43.80
2022-07-25T16:03:41.357Z,43.96
2022-07-25T16:06:09.410Z,44.00
2022-07-25T16:08:37.913Z,43.79
2022-07-25T16:11:06.315Z,44.58
2022-07-25T16:13:34.233Z,45.01
2022-07-25T16:16:02.086Z,44.83
2022-07-25T16:18:32.272Z,45.10
2022-07-25T16:21:00.224Z,44.97
2022-07-25T16:23:28.241Z,44.79
2022-07-25T16:25:56.311Z,44.75
2022-07-25T16:28:24.262Z,44.58
2022-07-25T16:30:52.275Z,44.16
2022-07-25T16:33:20.214Z,44.17
2022-07-25T16:35:49.557Z,44.13
2022-07-25T16:38:17.877Z,44.21
2022-07-25T16:40:46.072Z,44.46
2022-07-25T16:43:13.899Z,44.28
2022-07-25T16:45:43.010Z,43.97
2022-07-25T16:48:10.895Z,44.22
2022-07-25T16:50:38.726Z,44.29
2022-07-25T16:53:08.210Z,44.52
2022-07-25T16:55:36.031Z,44.49
2022-07-25T16:58:03.872Z,44.93
2022-07-25T17:00:31.803Z,44.87
2022-07-25T17:02:59.748Z,45.23
2022-07-25T17:05:27.873Z,45.58
2022-07-25T17:07:59.552Z,45.26
2022-07-25T17:10:29.906Z,45.41
2022-07-25T17:12:57.905Z,45.90
2022-07-25T17:15:25.912Z,46.01
2022-07-25T17:17:53.704Z,46.15
2022-07-25T17:20:21.790Z,47.20
2022-07-25T17:22:49.797Z,47.08
2022-07-25T17:25:17.766Z,47.24
2022-07-25T17:27:46.952Z,47.25
2022-07-25T17:30:14.986Z,47.88
2022-07-25T17:32:42.826Z,47.98
2022-07-25T17:35:10.976Z,48.48
2022-07-25T17:37:38.867Z,48.17
2022-07-25T17:40:07.757Z,49.15
2022-07-25T17:42:35.558Z,48.80
2022-07-25T17:45:06.983Z,49.58
2022-07-25T17:47:35.243Z,49.28
2022-07-25T17:50:03.330Z,49.45
2022-07-25T17:52:31.244Z,50.09
2022-07-25T17:54:59.604Z,50.04
2022-07-25T17:57:27.521Z,50.65
2022-07-25T17:59:55.327Z,50.68
2022-07-25T18:02:24.657Z,51.38
2022-07-25T18:04:53.659Z,50.76
2022-07-25T18:07:21.798Z,50.96
2022-07-25T18:09:49.588Z,50.94
2022-07-25T18:12:17.411Z,50.02
2022-07-25T18:14:45.232Z,50.02
2022-07-25T18:17:13.275Z,49.12
2022-07-25T18:19:42.416Z,49.49
2022-07-25T18:22:10.212Z,49.42
2022-07-25T18:24:38.393Z,49.84
2022-07-25T18:27:06.759Z,50.13
2022-07-25T18:29:37.215Z,50.85
2022-07-25T18:32:05.571Z,51.43
2022-07-25T18:34:33.993Z,51.84
2022-07-25T18:37:03.413Z,52.65
2022-07-25T18:39:31.504Z,53.46
2022-07-25T18:41:59.994Z,54.05
2022-07-25T18:44:28.119Z,54.66
2022-07-25T18:46:57.087Z,54.96
2022-07-25T18:49:27.098Z,55.26
2022-07-25T18:51:54.909Z,55.71
2022-07-25T18:54:24.348Z,55.79
2022-07-25T18:56:52.207Z,55.84
2022-07-25T18:59:20.207Z,56.17
2022-07-25T19:01:50.014Z,55.52
2022-07-25T19:04:18.244Z,54.92
2022-07-25T19:06:46.221Z,55.02
2022-07-25T19:09:14.204Z,54.49
2022-07-25T19:11:43.338Z,54.12
2022-07-25T19:14:11.465Z,53.95
2022-07-25T19:16:39.307Z,53.94
2022-07-25T19:19:09.556Z,53.97
2022-07-25T19:21:37.665Z,54.02
2022-07-25T19:24:06.459Z,53.39
2022-07-25T19:26:34.470Z,53.36
2022-07-25T19:29:06.129Z,53.11
2022-07-25T19:31:34.306Z,52.34
2022-07-25T19:34:02.267Z,52.18
2022-07-25T19:36:29.995Z,50.82
2022-07-25T19:38:57.736Z,50.96
2022-07-25T19:41:26.218Z,50.87
2022-07-25T19:43:54.869Z,51.12
2022-07-25T19:46:25.027Z,50.96
2022-07-25T19:48:52.931Z,50.63
2022-07-25T19:51:20.866Z,51.46
2022-07-25T19:53:48.777Z,51.17
2022-07-25T19:56:16.709Z,50.86
2022-07-25T19:58:45.273Z,51.02
2022-07-25T20:01:13.343Z,51.30
2022-07-25T20:03:42.666Z,51.26
2022-07-25T20:06:10.854Z,50.81
2022-07-25T20:08:40.192Z,50.95
2022-07-25T20:11:08.282Z,51.15
2022-07-25T20:13:36.395Z,51.01
2022-07-25T20:16:04.819Z,51.78
2022-07-25T20:18:32.789Z,51.74
2022-07-25T20:21:02.323Z,52.75
2022-07-25T20:23:30.723Z,52.32
2022-07-25T20:26:00.065Z,52.75
2022-07-25T20:28:27.873Z,53.28
2022-07-25T20:30:56.281Z,53.44
2022-07-25T20:33:27.021Z,53.88
2022-07-25T20:35:55.077Z,54.61
2022-07-25T20:38:25.481Z,54.92
2022-07-25T20:40:54.856Z,55.13
2022-07-25T20:43:23.266Z,56.49
2022-07-25T20:45:51.261Z,56.80
2022-07-25T20:48:19.176Z,57.43
2022-07-25T20:50:47.048Z,59.08
2022-07-25T20:53:14.891Z,59.60
2022-07-25T20:55:44.275Z,60.65
2022-07-25T20:58:12.143Z,62.31
2022-07-25T21:00:40.098Z,63.65
2022-07-25T21:03:08.394Z,64.41
2022-07-25T21:05:37.634Z,65.02
2022-07-25T21:08:05.775Z,65.38
2022-07-25T21:10:33.601Z,65.76
2022-07-25T21:13:02.840Z,66.50
2022-07-25T21:15:31.630Z,67.14
2022-07-25T21:17:59.739Z,67.41
2022-07-25T21:20:27.635Z,67.49
2022-07-25T21:22:56.349Z,67.79
2022-07-25T21:25:24.271Z,67.85
2022-07-25T21:27:52.343Z,68.08
2022-07-25T21:30:21.926Z,68.22
2022-07-25T21:32:49.778Z,68.05
2022-07-25T21:35:18.146Z,69.38
2022-07-25T21:37:45.945Z,69.18
2022-07-25T21:40:13.952Z,69.06
2022-07-25T21:42:43.051Z,68.88
2022-07-25T21:45:11.930Z,69.66
2022-07-25T21:47:41.498Z,69.82
2022-07-25T21:50:30.185Z,70.15
2022-07-25T21:52:59.443Z,69.85
2022-07-25T21:55:27.445Z,70.61
2022-07-25T21:57:55.357Z,70.62
2022-07-25T22:00:23.682Z,71.16
2022-07-25T22:02:53.100Z,71.28
2022-07-25T22:05:21.342Z,71.06
2022-07-25T22:07:49.715Z,70.21
2022-07-25T22:10:19.682Z,71.03
2022-07-25T22:12:47.837Z,71.36
2022-07-25T22:15:16.226Z,71.86
2022-07-25T22:17:48.770Z,73.06
2022-07-25T22:20:19.638Z,72.90
2022-07-25T22:22:47.839Z,72.85
2022-07-25T22:25:15.955Z,73.46
2022-07-25T22:27:43.815Z,73.60
2022-07-25T22:30:18.299Z,72.93
2022-07-25T22:32:47.760Z,73.30
2022-07-25T22:35:15.785Z,72.83
2022-07-25T22:37:45.446Z,72.51
2022-07-25T22:40:14.701Z,73.08
2022-07-25T22:42:42.774Z,72.57
2022-07-25T22:45:11.647Z,72.32
2022-07-25T22:47:39.614Z,72.10
2022-07-25T22:50:09.563Z,72.46
2022-07-25T22:52:37.343Z,72.80
2022-07-25T22:55:07.310Z,73.03
2022-07-25T22:57:37.121Z,73.05
2022-07-25T23:00:06.931Z,73.21
2022-07-25T23:02:34.786Z,72.50
2022-07-25T23:05:02.678Z,73.44
2022-07-25T23:07:30.455Z,73.40
2022-07-25T23:09:58.234Z,72.77
2022-07-25T23:12:27.383Z,73.31
2022-07-25T23:14:55.220Z,73.82
2022-07-25T23:17:24.613Z,73.96
2022-07-25T23:19:54.846Z,74.21
2022-07-25T23:22:23.254Z,74.65
2022-07-25T23:24:51.067Z,74.58
2022-07-25T23:27:19.313Z,75.55
2022-07-25T23:29:48.482Z,74.80
2022-07-25T23:32:16.447Z,75.18
2022-07-25T23:34:44.958Z,75.46
2022-07-25T23:37:12.915Z,76.19
2022-07-25T23:39:40.991Z,75.80
2022-07-25T23:42:08.903Z,76.89
2022-07-25T23:44:36.666Z,76.51
2022-07-25T23:47:10.080Z,76.58
2022-07-25T23:49:38.594Z,76.65
2022-07-25T23:52:06.861Z,76.40
2022-07-25T23:54:35.685Z,77.52
2022-07-25T23:57:03.762Z,77.62
2022-07-25T23:59:31.944Z,77.96
